createdAt,value
2023-02-22T00:02:13.838Z,19265.13
2023-02-22T00:04:43.333Z,19212.31
2023-02-22T00:07:11.593Z,19212.31
2023-02-22T00:09:39.683Z,19214.34
2023-02-22T00:12:08.620Z,19220.44
2023-02-22T00:14:36.750Z,19222.47
2023-02-22T00:17:04.866Z,19177.75
2023-02-22T00:19:32.965Z,19212.31
2023-02-22T00:22:03.022Z,19234.66
2023-02-22T00:24:36.047Z,19212.31
2023-02-22T00:27:04.598Z,19222.47
2023-02-22T00:29:34.302Z,19200.13
2023-02-22T00:32:02.646Z,19236.69
2023-02-22T00:34:30.888Z,19192.00
2023-02-22T00:37:02.781Z,19212.31
2023-02-22T00:39:32.344Z,19238.72
2023-02-22T00:42:00.493Z,19220.44
2023-02-22T00:44:28.831Z,19216.38
2023-02-22T00:46:56.934Z,19232.63
2023-02-22T00:49:26.078Z,19238.72
2023-02-22T00:51:54.763Z,19234.66
2023-02-22T00:54:23.002Z,19246.84
2023-02-22T00:56:53.348Z,19216.38
2023-02-22T00:59:21.527Z,19220.44
2023-02-22T01:01:49.618Z,19238.72
2023-02-22T01:04:18.357Z,19210.28
2023-02-22T01:06:46.653Z,19250.91
2023-02-22T01:09:14.818Z,19238.72
2023-02-22T01:11:42.924Z,19228.56
2023-02-22T01:14:12.418Z,19232.63
2023-02-22T01:16:40.601Z,19226.53
2023-02-22T01:19:08.777Z,19236.69
2023-02-22T01:21:36.864Z,19238.72
2023-02-22T01:24:05.442Z,19216.38
2023-02-22T01:26:33.594Z,19216.38
2023-02-22T01:29:02.190Z,19218.41
2023-02-22T01:31:31.623Z,19234.66
2023-02-22T01:33:59.796Z,19228.56
2023-02-22T01:36:27.891Z,19222.47
2023-02-22T01:38:55.982Z,19202.16
2023-02-22T01:41:24.107Z,19224.50
2023-02-22T01:43:52.219Z,19224.50
2023-02-22T01:46:27.480Z,19230.59
2023-02-22T01:49:03.073Z,19224.50
2023-02-22T01:51:37.791Z,19214.34
2023-02-22T01:54:13.483Z,19210.28
2023-02-22T01:56:51.055Z,19218.41
2023-02-22T01:59:20.040Z,19179.78
2023-02-22T02:01:48.348Z,19192.00
2023-02-22T02:04:25.441Z,19169.63
2023-02-22T02:06:57.082Z,19204.19
2023-02-22T02:09:35.382Z,19183.84
2023-02-22T02:12:06.435Z,19167.59
2023-02-22T02:14:40.293Z,19141.19
2023-02-22T02:17:10.804Z,19153.38
2023-02-22T02:19:56.744Z,19159.47
2023-02-22T02:22:48.215Z,19163.53
2023-02-22T02:26:00.546Z,19112.75
2023-02-22T02:29:27.645Z,19094.44
2023-02-22T02:32:27.309Z,19092.41
2023-02-22T02:35:05.289Z,19090.38
2023-02-22T02:37:48.011Z,19100.53
2023-02-22T02:40:26.487Z,19080.22
2023-02-22T02:43:02.504Z,19084.28
2023-02-22T02:45:37.703Z,19088.34
2023-02-22T02:48:11.355Z,19094.44
2023-02-22T02:50:45.168Z,19080.22
2023-02-22T02:53:19.004Z,19078.19
2023-02-22T02:55:47.300Z,19090.38
2023-02-22T02:58:21.357Z,19074.13
2023-02-22T03:00:55.458Z,19025.38
2023-02-22T03:04:15.851Z,19053.81
2023-02-22T03:07:33.477Z,19029.44
2023-02-22T03:10:22.055Z,19066.00
2023-02-22T03:13:06.021Z,19082.25
2023-02-22T03:15:45.734Z,19086.31
2023-02-22T03:18:28.990Z,19092.41
2023-02-22T03:21:11.769Z,19098.50
2023-02-22T03:23:48.034Z,19094.44
2023-02-22T03:26:24.877Z,19100.53
2023-02-22T03:28:56.929Z,19135.09
2023-02-22T03:31:30.703Z,19084.28
2023-02-22T03:34:05.778Z,19169.63
2023-02-22T03:36:40.648Z,19112.75
2023-02-22T03:39:15.983Z,19086.31
2023-02-22T03:41:51.357Z,19145.25
2023-02-22T03:44:27.656Z,19135.09
2023-02-22T03:47:03.031Z,19114.78
2023-02-22T03:49:38.363Z,19135.09
2023-02-22T03:52:09.782Z,19145.25
2023-02-22T03:54:38.502Z,19169.63
2023-02-22T03:57:15.016Z,19179.78
2023-02-22T03:59:43.961Z,19171.66
2023-02-22T04:02:12.455Z,19163.53
2023-02-22T04:04:40.661Z,19173.69
2023-02-22T04:07:10.118Z,19187.91
2023-02-22T04:09:38.228Z,19175.72
2023-02-22T04:12:07.033Z,19224.50
2023-02-22T04:14:35.172Z,19210.28
2023-02-22T04:17:03.342Z,19192.00
2023-02-22T04:19:31.474Z,19167.59
2023-02-22T04:21:59.625Z,19206.22
2023-02-22T04:24:30.533Z,19218.41
2023-02-22T04:26:58.815Z,19185.88
2023-02-22T04:29:26.941Z,19159.47
2023-02-22T04:31:55.091Z,19179.78
2023-02-22T04:34:23.390Z,19187.91
2023-02-22T04:36:52.365Z,19185.88
2023-02-22T04:39:20.645Z,19149.31
2023-02-22T04:41:50.384Z,19196.06
2023-02-22T04:44:18.795Z,19185.88
2023-02-22T04:46:47.548Z,19159.47
2023-02-22T04:49:15.753Z,19187.91
2023-02-22T04:51:43.946Z,19204.19
2023-02-22T04:54:12.865Z,19196.06
2023-02-22T04:56:41.000Z,19181.81
2023-02-22T04:59:10.672Z,19202.16
2023-02-22T05:01:40.006Z,19204.19
2023-02-22T05:04:09.487Z,19226.53
2023-02-22T05:06:37.879Z,19187.91
2023-02-22T05:09:05.994Z,19210.28
2023-02-22T05:11:34.118Z,19212.31
2023-02-22T05:14:02.285Z,19196.06
2023-02-22T05:16:31.970Z,19198.09
2023-02-22T05:19:00.115Z,19208.25
2023-02-22T05:21:28.287Z,19192.00
2023-02-22T05:23:57.348Z,19192.00
2023-02-22T05:26:25.517Z,19187.91
2023-02-22T05:28:53.654Z,19177.75
2023-02-22T05:31:21.904Z,19214.34
2023-02-22T05:33:51.366Z,19177.75
2023-02-22T05:36:19.520Z,19175.72
2023-02-22T05:38:47.637Z,19198.09
2023-02-22T05:41:16.163Z,19169.63
2023-02-22T05:43:44.536Z,19206.22
2023-02-22T05:46:12.881Z,19200.13
2023-02-22T05:48:41.062Z,19204.19
2023-02-22T05:51:10.700Z,19204.19
2023-02-22T05:53:38.849Z,19181.81
2023-02-22T05:56:07.837Z,19187.91
2023-02-22T05:58:35.998Z,19192.00
2023-02-22T06:01:04.129Z,19198.09
2023-02-22T06:03:32.230Z,19185.88
2023-02-22T06:06:00.363Z,19238.72
2023-02-22T06:08:29.823Z,19216.38
2023-02-22T06:10:58.126Z,19200.13
2023-02-22T06:13:26.259Z,19196.06
2023-02-22T06:15:54.438Z,19179.78
2023-02-22T06:18:22.597Z,19185.88
2023-02-22T06:20:50.825Z,19218.41
2023-02-22T06:23:18.959Z,19177.75
2023-02-22T06:25:49.261Z,19194.03
2023-02-22T06:28:17.529Z,19196.06
2023-02-22T06:30:46.112Z,19206.22
2023-02-22T06:33:14.365Z,19200.13
2023-02-22T06:35:42.487Z,19196.06
2023-02-22T06:38:10.627Z,19236.69
2023-02-22T06:40:38.795Z,19212.31
2023-02-22T06:43:08.337Z,19242.78
2023-02-22T06:45:36.472Z,19206.22
2023-02-22T06:48:04.857Z,19218.41
2023-02-22T06:50:35.823Z,19220.44
2023-02-22T06:53:04.782Z,19230.59
2023-02-22T06:55:35.339Z,19206.22
2023-02-22T06:58:05.789Z,19226.53
2023-02-22T07:00:35.318Z,19222.47
2023-02-22T07:03:06.055Z,19224.50
2023-02-22T07:05:34.238Z,19242.78
2023-02-22T07:08:08.495Z,19224.50
2023-02-22T07:10:38.699Z,19246.84
2023-02-22T07:13:09.275Z,19228.56
2023-02-22T07:15:38.808Z,19244.81
2023-02-22T07:18:07.324Z,19220.44
2023-02-22T07:20:36.246Z,19277.34
2023-02-22T07:23:05.039Z,19299.69
2023-02-22T07:25:33.122Z,19257.00
2023-02-22T07:28:02.436Z,19273.28
2023-02-22T07:30:34.172Z,19248.88
2023-02-22T07:33:06.772Z,19301.72
2023-02-22T07:35:37.588Z,19263.09
2023-02-22T07:38:07.951Z,19295.63
2023-02-22T07:40:37.564Z,19315.94
2023-02-22T07:43:15.947Z,19336.25
2023-02-22T07:45:44.182Z,19313.91
2023-02-22T07:48:17.303Z,19299.69
2023-02-22T07:50:45.879Z,19309.84
2023-02-22T07:53:19.164Z,19289.53
2023-02-22T07:55:48.969Z,19289.53
2023-02-22T07:58:17.673Z,19291.56
2023-02-22T08:00:48.284Z,19342.34
2023-02-22T08:03:20.952Z,19305.78
2023-02-22T08:05:51.958Z,19324.06
2023-02-22T08:08:20.270Z,19356.59
2023-02-22T08:10:49.360Z,19307.81
2023-02-22T08:13:18.636Z,19342.34
2023-02-22T08:15:48.000Z,19344.41
2023-02-22T08:18:20.150Z,19370.81
2023-02-22T08:20:51.895Z,19354.56
2023-02-22T08:23:23.462Z,19364.72
2023-02-22T08:25:51.977Z,19348.47
2023-02-22T08:28:23.396Z,19362.69
2023-02-22T08:30:52.252Z,19407.38
2023-02-22T08:33:22.079Z,19380.97
2023-02-22T08:35:51.623Z,19387.06
2023-02-22T08:38:24.185Z,19413.47
2023-02-22T08:40:52.654Z,19411.44
2023-02-22T08:43:22.663Z,19405.34
2023-02-22T08:45:52.423Z,19399.25
2023-02-22T08:48:22.077Z,19441.94
2023-02-22T08:50:50.133Z,19403.31
2023-02-22T08:53:19.180Z,19439.91
2023-02-22T08:55:47.500Z,19450.06
2023-02-22T08:58:15.689Z,19458.19
2023-02-22T09:00:44.743Z,19500.88
2023-02-22T09:03:15.368Z,19468.34
2023-02-22T09:05:45.794Z,19504.94
2023-02-22T09:08:14.041Z,19492.75
2023-02-22T09:10:42.620Z,19484.59
2023-02-22T09:13:10.789Z,19504.94
2023-02-22T09:15:39.882Z,19498.84
2023-02-22T09:18:14.349Z,19525.25
2023-02-22T09:20:44.050Z,19502.91
2023-02-22T09:23:12.352Z,19527.28
2023-02-22T09:25:40.771Z,19517.13
2023-02-22T09:28:09.124Z,19549.63
2023-02-22T09:30:38.344Z,19537.44
2023-02-22T09:33:10.677Z,19576.06
2023-02-22T09:35:42.119Z,19559.81
2023-02-22T09:38:12.298Z,19531.34
2023-02-22T09:40:46.110Z,19578.09
2023-02-22T09:43:35.612Z,19600.44
2023-02-22T09:46:22.879Z,19582.16
2023-02-22T09:49:02.878Z,19594.34
2023-02-22T09:51:41.112Z,19606.53
2023-02-22T09:54:22.476Z,19632.97
2023-02-22T09:56:57.304Z,19630.94
2023-02-22T09:59:32.813Z,19626.88
2023-02-22T10:02:22.049Z,19608.56
2023-02-22T10:04:58.509Z,19655.31
2023-02-22T10:07:34.465Z,19651.25
2023-02-22T10:10:06.849Z,19675.63
2023-02-22T10:12:49.437Z,19645.16
2023-02-22T10:15:47.525Z,19683.78
2023-02-22T10:19:00.162Z,19687.84
2023-02-22T10:21:57.722Z,19700.03
2023-02-22T10:24:42.405Z,19758.97
2023-02-22T10:27:22.081Z,19693.94
2023-02-22T10:29:55.742Z,19730.50
2023-02-22T10:32:32.262Z,19732.53
2023-02-22T10:35:05.435Z,19809.78
2023-02-22T10:37:35.807Z,19765.06
2023-02-22T10:40:17.746Z,19826.03
2023-02-22T10:42:47.920Z,19813.84
2023-02-22T10:45:26.727Z,19813.84
2023-02-22T10:47:59.304Z,19858.56
2023-02-22T10:50:30.541Z,19874.81
2023-02-22T10:52:58.953Z,19848.38
2023-02-22T10:55:27.496Z,19856.53
2023-02-22T10:58:06.753Z,19813.84
2023-02-22T11:00:38.229Z,19878.88
2023-02-22T11:03:19.077Z,19870.75
2023-02-22T11:05:47.700Z,19850.41
2023-02-22T11:08:32.925Z,19878.88
2023-02-22T11:11:20.060Z,19880.91
2023-02-22T11:13:56.371Z,19927.66
2023-02-22T11:16:32.883Z,19917.50
2023-02-22T11:19:08.972Z,19931.72
2023-02-22T11:21:37.343Z,19937.81
2023-02-22T11:24:10.084Z,19947.97
2023-02-22T11:26:43.738Z,19893.09
2023-02-22T11:29:23.048Z,19927.66
2023-02-22T11:31:51.984Z,19937.81
2023-02-22T11:34:31.507Z,19939.84
2023-02-22T11:37:30.351Z,19927.66
2023-02-22T11:40:19.456Z,19945.94
2023-02-22T11:42:48.387Z,19941.88
2023-02-22T11:45:23.614Z,19976.44
2023-02-22T11:47:55.857Z,19919.53
2023-02-22T11:50:31.721Z,19986.59
2023-02-22T11:53:31.116Z,19978.47
2023-02-22T11:56:20.580Z,19968.31
2023-02-22T11:59:03.462Z,20019.13
2023-02-22T12:01:46.392Z,20019.13
2023-02-22T12:04:53.077Z,19996.75
2023-02-22T12:07:50.510Z,20000.81
2023-02-22T12:10:39.378Z,20017.09
2023-02-22T12:13:32.614Z,19988.63
2023-02-22T12:16:16.921Z,19980.50
2023-02-22T12:19:13.632Z,19925.63
2023-02-22T12:21:49.321Z,19935.78
2023-02-22T12:24:22.547Z,19952.03
2023-02-22T12:26:58.650Z,19921.56
2023-02-22T12:29:33.790Z,19874.81
2023-02-22T12:32:11.162Z,19905.28
2023-02-22T12:34:49.387Z,19907.31
2023-02-22T12:37:25.238Z,19919.53
2023-02-22T12:40:08.215Z,19882.94
2023-02-22T12:42:52.616Z,19889.03
2023-02-22T12:45:33.219Z,19909.34
2023-02-22T12:48:23.350Z,19925.63
2023-02-22T12:51:00.780Z,19968.31
2023-02-22T12:53:38.659Z,19962.19
2023-02-22T12:56:23.178Z,19905.28
2023-02-22T12:59:02.822Z,19897.16
2023-02-22T13:01:39.071Z,19913.44
2023-02-22T13:04:20.125Z,19911.41
2023-02-22T13:07:06.504Z,19909.34
2023-02-22T13:10:14.290Z,19927.66
2023-02-22T13:12:54.053Z,19903.25
2023-02-22T13:15:31.291Z,19915.47
2023-02-22T13:18:13.063Z,19907.31
2023-02-22T13:20:49.893Z,19903.25
2023-02-22T13:23:38.929Z,19911.41
2023-02-22T13:26:19.734Z,19901.22
2023-02-22T13:28:59.379Z,19939.84
2023-02-22T13:31:56.615Z,19909.34
2023-02-22T13:34:55.852Z,19897.16
2023-02-22T13:37:55.200Z,19884.97
2023-02-22T13:41:03.270Z,19868.72
2023-02-22T13:44:16.113Z,19882.94
2023-02-22T13:47:36.308Z,19897.16
2023-02-22T13:50:53.048Z,19887.00
2023-02-22T13:53:29.849Z,19878.88
2023-02-22T13:56:01.671Z,19882.94
2023-02-22T13:58:29.955Z,19931.72
2023-02-22T14:01:00.294Z,19878.88
2023-02-22T14:03:40.689Z,19858.56
2023-02-22T14:06:41.507Z,19848.38
2023-02-22T14:09:10.469Z,19850.41
2023-02-22T14:11:52.042Z,19874.81
2023-02-22T14:14:20.121Z,19852.44
2023-02-22T14:17:24.691Z,19791.47
2023-02-22T14:20:21.253Z,19807.75
2023-02-22T14:22:52.934Z,19840.25
2023-02-22T14:25:40.086Z,19807.75
2023-02-22T14:28:43.375Z,19824.00
2023-02-22T14:31:33.293Z,19821.97
2023-02-22T14:34:10.068Z,19876.84
2023-02-22T14:36:48.515Z,19805.72
2023-02-22T14:39:26.720Z,19793.50
2023-02-22T14:42:03.565Z,19821.97
2023-02-22T14:44:40.563Z,19793.50
2023-02-22T14:47:19.996Z,19809.78
2023-02-22T14:49:54.773Z,19834.16
2023-02-22T14:52:28.852Z,19866.69
2023-02-22T14:55:12.650Z,19824.00
2023-02-22T14:57:56.746Z,19821.97
2023-02-22T15:00:37.402Z,19826.03
2023-02-22T15:03:05.712Z,19860.59
2023-02-22T15:05:39.202Z,19858.56
2023-02-22T15:08:10.582Z,19813.84
2023-02-22T15:10:44.773Z,19799.63
2023-02-22T15:13:20.281Z,19826.03
2023-02-22T15:15:59.074Z,19807.75
2023-02-22T15:18:36.209Z,19801.66
2023-02-22T15:21:15.470Z,19777.25
2023-02-22T15:23:46.602Z,19785.38
2023-02-22T15:26:21.320Z,19779.28
2023-02-22T15:28:54.264Z,19758.97
2023-02-22T15:31:32.715Z,19769.13
2023-02-22T15:34:22.165Z,19738.66
2023-02-22T15:36:54.457Z,19722.38
2023-02-22T15:39:29.203Z,19736.59
2023-02-22T15:42:08.259Z,19724.41
2023-02-22T15:44:40.388Z,19716.28
2023-02-22T15:47:17.367Z,19706.13
2023-02-22T15:49:45.520Z,19724.41
2023-02-22T15:52:21.792Z,19712.22
2023-02-22T15:54:53.370Z,19687.84
2023-02-22T15:57:25.354Z,19712.22
2023-02-22T15:59:58.183Z,19677.66
2023-02-22T16:02:41.546Z,19637.03
2023-02-22T16:05:12.999Z,19661.41
2023-02-22T16:07:45.929Z,19649.22
2023-02-22T16:10:29.777Z,19628.91
2023-02-22T16:13:22.118Z,19600.44
2023-02-22T16:16:04.435Z,19624.84
2023-02-22T16:18:37.927Z,19645.16
2023-02-22T16:21:11.739Z,19594.34
2023-02-22T16:23:49.250Z,19606.53
2023-02-22T16:26:28.441Z,19596.38
2023-02-22T16:28:58.802Z,19596.38
2023-02-22T16:31:31.954Z,19594.34
2023-02-22T16:34:02.664Z,19578.09
2023-02-22T16:36:41.990Z,19572.00
2023-02-22T16:39:20.999Z,19547.59
2023-02-22T16:41:49.657Z,19572.00
2023-02-22T16:44:18.641Z,19553.72
2023-02-22T16:46:46.779Z,19580.13
2023-02-22T16:49:16.333Z,19569.97
2023-02-22T16:51:48.849Z,19521.19
2023-02-22T16:54:27.180Z,19547.59
2023-02-22T16:57:01.946Z,19529.31
2023-02-22T16:59:33.885Z,19553.72
2023-02-22T17:02:01.975Z,19506.97
2023-02-22T17:04:32.008Z,19496.81
2023-02-22T17:07:00.324Z,19515.09
2023-02-22T17:09:28.476Z,19551.69
2023-02-22T17:11:57.149Z,19517.13
2023-02-22T17:14:34.577Z,19533.38
2023-02-22T17:17:02.818Z,19506.97
2023-02-22T17:19:32.282Z,19492.75
2023-02-22T17:22:05.872Z,19555.75
2023-02-22T17:24:34.118Z,19539.47
2023-02-22T17:27:02.997Z,19500.88
2023-02-22T17:29:31.176Z,19484.59
2023-02-22T17:31:59.669Z,19504.94
2023-02-22T17:34:28.041Z,19488.69
2023-02-22T17:36:57.516Z,19506.97
2023-02-22T17:39:27.316Z,19480.53
2023-02-22T17:41:57.732Z,19490.72
2023-02-22T17:44:26.238Z,19502.91
2023-02-22T17:46:54.583Z,19486.66
2023-02-22T17:49:22.827Z,19484.59
2023-02-22T17:51:53.117Z,19480.53
2023-02-22T17:54:23.005Z,19488.69
2023-02-22T17:56:51.202Z,19490.72
2023-02-22T17:59:19.370Z,19484.59
2023-02-22T18:01:48.142Z,19486.66
2023-02-22T18:04:16.520Z,19456.16
2023-02-22T18:06:45.166Z,19480.53
2023-02-22T18:09:14.560Z,19498.84
2023-02-22T18:11:44.347Z,19450.06
2023-02-22T18:14:12.417Z,19439.91
2023-02-22T18:16:41.474Z,19427.72
2023-02-22T18:19:09.843Z,19484.59
2023-02-22T18:21:38.703Z,19441.94
2023-02-22T18:24:08.123Z,19439.91
2023-02-22T18:26:38.881Z,19409.41
2023-02-22T18:29:11.344Z,19415.50
2023-02-22T18:31:39.572Z,19405.34
2023-02-22T18:34:07.677Z,19407.38
2023-02-22T18:36:35.753Z,19397.22
2023-02-22T18:39:04.220Z,19411.44
2023-02-22T18:41:32.272Z,19393.16
2023-02-22T18:44:00.827Z,19419.59
2023-02-22T18:46:30.823Z,19427.72
2023-02-22T18:48:59.413Z,19415.50
2023-02-22T18:51:28.946Z,19389.09
2023-02-22T18:54:00.407Z,19380.97
2023-02-22T18:56:30.673Z,19399.25
2023-02-22T18:59:01.235Z,19385.03
2023-02-22T19:01:38.445Z,19376.91
2023-02-22T19:04:09.659Z,19338.28
2023-02-22T19:06:38.262Z,19387.06
2023-02-22T19:09:08.494Z,19380.97
2023-02-22T19:11:40.010Z,19344.41
2023-02-22T19:14:09.502Z,19340.31
2023-02-22T19:16:39.385Z,19378.94
2023-02-22T19:19:07.457Z,19338.28
2023-02-22T19:21:36.456Z,19350.50
2023-02-22T19:24:05.452Z,19338.28
2023-02-22T19:26:34.097Z,19348.47
2023-02-22T19:29:06.246Z,19330.16
2023-02-22T19:31:35.839Z,19338.28
2023-02-22T19:34:09.685Z,19346.44
2023-02-22T19:36:40.028Z,19317.97
2023-02-22T19:39:08.564Z,19326.09
2023-02-22T19:41:36.734Z,19313.91
2023-02-22T19:44:05.676Z,19334.22
2023-02-22T19:46:34.942Z,19326.09
2023-02-22T19:49:05.453Z,19330.16
2023-02-22T19:51:34.549Z,19283.44
2023-02-22T19:54:06.026Z,19271.25
2023-02-22T19:56:36.098Z,19299.69
2023-02-22T19:59:12.496Z,19307.81
2023-02-22T20:01:44.230Z,19293.59
2023-02-22T20:04:18.381Z,19273.28
2023-02-22T20:06:48.628Z,19271.25
2023-02-22T20:09:20.283Z,19248.88
2023-02-22T20:11:49.413Z,19228.56
2023-02-22T20:14:23.436Z,19267.16
2023-02-22T20:16:51.827Z,19238.72
2023-02-22T20:19:22.509Z,19275.31
2023-02-22T20:21:52.243Z,19240.75
2023-02-22T20:24:20.796Z,19265.13
2023-02-22T20:26:49.457Z,19257.00
2023-02-22T20:29:18.721Z,19261.06
2023-02-22T20:31:52.389Z,19212.31
2023-02-22T20:34:21.952Z,19216.38
2023-02-22T20:36:50.445Z,19248.88
2023-02-22T20:39:18.925Z,19212.31
2023-02-22T20:41:47.347Z,19222.47
2023-02-22T20:44:20.099Z,19240.75
2023-02-22T20:46:49.304Z,19248.88
2023-02-22T20:49:21.389Z,19236.69
2023-02-22T20:51:50.420Z,19228.56
2023-02-22T20:54:19.204Z,19226.53
2023-02-22T20:56:48.396Z,19230.59
2023-02-22T20:59:19.622Z,19216.38
2023-02-22T21:01:49.930Z,19198.09
2023-02-22T21:04:18.282Z,19204.19
2023-02-22T21:06:47.851Z,19220.44
2023-02-22T21:09:20.019Z,19220.44
2023-02-22T21:11:49.040Z,19216.38
2023-02-22T21:14:19.737Z,19210.28
2023-02-22T21:16:50.398Z,19222.47
2023-02-22T21:19:28.118Z,19230.59
2023-02-22T21:22:01.396Z,19224.50
2023-02-22T21:24:30.797Z,19206.22
2023-02-22T21:26:59.392Z,19194.03
2023-02-22T21:29:28.339Z,19196.06
2023-02-22T21:31:57.443Z,19210.28
2023-02-22T21:34:26.215Z,19212.31
2023-02-22T21:36:54.573Z,19226.53
2023-02-22T21:39:28.145Z,19222.47
2023-02-22T21:42:00.395Z,19202.16
2023-02-22T21:44:29.289Z,19224.50
2023-02-22T21:46:57.549Z,19206.22
2023-02-22T21:49:25.725Z,19220.44
2023-02-22T21:51:53.876Z,19202.16
2023-02-22T21:54:24.055Z,19157.44
2023-02-22T21:56:54.346Z,19177.75
2023-02-22T21:59:23.977Z,19173.69
2023-02-22T22:01:56.515Z,19173.69
2023-02-22T22:04:29.446Z,19171.66
2023-02-22T22:06:59.925Z,19149.31
2023-02-22T22:09:32.795Z,19151.34
2023-02-22T22:12:05.051Z,19147.28
2023-02-22T22:14:34.999Z,19165.56
2023-02-22T22:17:05.469Z,19183.84
2023-02-22T22:19:39.049Z,19147.28
2023-02-22T22:22:07.829Z,19151.34
2023-02-22T22:24:37.992Z,19169.63
2023-02-22T22:27:09.678Z,19167.59
2023-02-22T22:29:37.766Z,19151.34
2023-02-22T22:32:07.229Z,19157.44
2023-02-22T22:34:37.748Z,19165.56
2023-02-22T22:37:05.881Z,19163.53
2023-02-22T22:39:34.011Z,19173.69
2023-02-22T22:42:03.548Z,19149.31
2023-02-22T22:44:32.799Z,19163.53
2023-02-22T22:47:01.125Z,19161.50
2023-02-22T22:49:31.278Z,19126.97
2023-02-22T22:51:59.625Z,19147.28
2023-02-22T22:54:28.815Z,19145.25
2023-02-22T22:56:56.942Z,19159.47
2023-02-22T22:59:27.738Z,19159.47
2023-02-22T23:01:56.601Z,19141.19
2023-02-22T23:04:25.480Z,19145.25
2023-02-22T23:06:55.401Z,19159.47
2023-02-22T23:09:26.462Z,19122.91
2023-02-22T23:11:58.000Z,19157.44
2023-02-22T23:14:31.114Z,19153.38
2023-02-22T23:17:03.467Z,19133.06
2023-02-22T23:19:32.656Z,19163.53
2023-02-22T23:22:01.424Z,19165.56
2023-02-22T23:24:29.603Z,19135.09
2023-02-22T23:27:00.028Z,19147.28
2023-02-22T23:29:30.668Z,19139.16
2023-02-22T23:31:59.042Z,19151.34
2023-02-22T23:34:28.894Z,19147.28
2023-02-22T23:36:57.130Z,19135.09
2023-02-22T23:39:27.182Z,19163.53
2023-02-22T23:41:59.732Z,19139.16
2023-02-22T23:44:30.066Z,19137.13
2023-02-22T23:46:58.258Z,19147.28
2023-02-22T23:49:37.835Z,19171.66
2023-02-22T23:52:07.535Z,19149.31
2023-02-22T23:54:43.629Z,19143.22
2023-02-22T23:57:12.022Z,19151.34
2023-02-22T23:59:41.474Z,19153.38
